Aérodrome :
LOGIN :

S'inscrire | Disclaimer

   EN    FR    IT 

 










Légende :    VFR   VFR Marginal   IFR   IFR Intensif   IFR Très Intensif
Visi : 
Plafond : 
>= 8 km
>= 3000ft
5 à 8 km
1000 à 3000 ft
1500m à 5 km
500 à 1000 ft
800 à 1500m
200 à 500 ft
< 800m
< 200 ft
Symboles :   Orages  Brouillard  Fortes neiges  Fortes précipitations  Vent > 20 kt
SIGMETs :   Divers  Orages  Givrage  Turbulence  Onde Orograph.  Cendres Volcan.






- Altitude de l'aérodrome : 78 ft
- Code IATA : LED


ULLI - Pulkovo

DERNIER METAR :
  • 300700Z 01004MPS 340V050 9999 FEW040TCU M00/M11 Q1019 R88/090060 NOSIG

METARs EXPIRÉS :
  • 300630Z 35004MPS 9999 FEW040TCU M01/M11 Q1019 R88/090060 NOSIG
  • 300600Z 34003MPS 310V030 CAVOK M01/M10 Q1019 R88/090060 NOSIG
  • 300530Z 27002MPS CAVOK M02/M09 Q1019 R88/090060 NOSIG
  • 300500Z 27002MPS CAVOK M04/M08 Q1018 R88/090060 NOSIG
  • 300430Z 26002MPS CAVOK M06/M10 Q1018 R28L/090060 NOSIG

TAF TAF ULLI
Valide du 30 à 06h jusqu'au 31 à 06h UTC


300455Z 3006/3106 30003MPS 9999 SCT030
TEMPO 3006/3017 36003G08MPS 4000 -SHSN SCT011 BKN020CB



MET'MAP, la Météo Aéronautique d'un coup d'oeil ! - Copyright ORBIFLY Décembre 2007 - Disclaimer

ORBIFLY MET'MAP TEAM :

Programmation & Développement : Alexandra Zaïnal
Sur une idée originale de : Baudouin d'Aumeries
Assistance à la programmation : Marc-Olivier Méhu
Soutien technique & logistique : Manuel Goepfert

Contact : metmap@orbifly.com




SOURCES & CREDITS :

   NOAA